Time;durP1;ratioP1;P1;durP2;ratioP2;P2;SDS_P1;SDS_P2;PMS_P1;PMS_P2;Temp;Humidity;BMP_temperature;BMP_pressure;BME280_temperature;BME280_humidity;BME280_pressure;Samples;Min_cycle;Max_cycle;Signal;HPM_P1;HPM_P2
2021/09/13 00:00:08;;;;;;;;;;;;;;;17.51;74.80;98206.91;1579053;90;20524;-86
2021/09/13 00:02:36;;;;;;;;;;;;;;;17.49;74.92;98208.87;1605185;89;20324;-86
2021/09/13 00:05:02;;;;;;;;;;;;;;;17.49;75.02;98209.70;1578914;90;20240;-86
2021/09/13 00:07:28;;;;;;;;;;;;;;;17.49;75.09;98207.55;1605455;88;25929;-86
2021/09/13 00:09:54;;;;;;;;;;;;;;;17.48;75.17;98209.84;1605115;88;20854;-86
2021/09/13 00:12:20;;;;;;;;;;;;;;;17.48;75.26;98203.23;1578918;90;20183;-86
2021/09/13 00:14:46;;;;;;;;;;;;;;;17.49;75.33;98208.87;1605108;88;20820;-86
2021/09/13 00:17:12;;;;;;;;;;;;;;;17.51;75.38;98206.39;1578998;90;20339;-86
2021/09/13 00:19:38;;;;;;;;;;;;;;;17.54;75.44;98202.61;1605798;89;26193;-86
2021/09/13 00:22:05;;;;;;;;;;;;;;;17.56;75.48;98201.97;1577646;90;24432;-86
2021/09/13 00:24:31;;;;;;;;;;;;;;;17.57;75.51;98199.64;1601793;89;20641;-86
2021/09/13 00:26:57;;;;;;;;;;;;;;;17.54;75.54;98198.16;1603685;88;20359;-87
2021/09/13 00:29:23;;;;;;;;;;;;;;;17.54;75.56;98198.64;1602593;88;21952;-87
2021/09/13 00:31:48;;;;;;;;;;;;;;;17.55;75.62;98203.79;1575543;89;21056;-87
2021/09/13 00:34:14;;;;;;;;;;;;;;;17.54;75.65;98201.29;1569748;89;24456;-87
2021/09/13 00:36:40;;;;;;;;;;;;;;;17.51;75.68;98209.55;1579997;89;20435;-87
2021/09/13 00:39:06;;;;;;;;;;;;;;;17.46;75.71;98210.48;1574620;89;24769;-87
2021/09/13 00:41:34;;;;;;;;;;;;;;;17.42;75.73;98216.59;1588691;89;21955;-87
2021/09/13 00:44:01;;;;;;;;;;;;;;;17.38;75.77;98211.77;1600418;89;26083;-87
2021/09/13 00:46:27;;;;;;;;;;;;;;;17.36;75.82;98211.92;1601743;88;24513;-87
2021/09/13 00:48:53;;;;;;;;;;;;;;;17.33;75.86;98208.27;1574700;90;20280;-87
2021/09/13 00:51:19;;;;;;;;;;;;;;;17.30;75.89;98211.21;1601812;88;20765;-87
2021/09/13 00:53:45;;;;;;;;;;;;;;;17.19;75.94;98205.34;1576282;90;22042;-87
2021/09/13 00:56:12;;;;;;;;;;;;;;;17.09;75.97;98202.30;1601909;88;20927;-86
2021/09/13 00:58:38;;;;;;;;;;;;;;;16.93;75.98;98199.53;1575279;91;24461;-86
2021/09/13 01:01:05;;;;;;;;;;;;;;;16.85;76.06;98208.73;1602158;89;20329;-86
2021/09/13 01:03:36;;;;;;;;;;;;;;;16.87;76.13;98200.63;1575260;91;24815;-86
2021/09/13 01:06:02;;;;;;;;;;;;;;;16.98;76.23;98201.70;1601974;88;21971;-86
2021/09/13 01:08:34;;;;;;;;;;;;;;;17.00;76.26;98202.40;1575525;90;21806;-87
2021/09/13 01:11:00;;;;;;;;;;;;;;;16.91;76.30;98202.80;1568502;90;24517;-88
2021/09/13 01:13:27;;;;;;;;;;;;;;;16.89;76.33;98198.67;1581410;89;20309;-87
2021/09/13 01:15:55;;;;;;;;;;;;;;;16.93;76.38;98199.53;1575495;89;24885;-87
2021/09/13 01:18:26;;;;;;;;;;;;;;;16.84;76.42;98197.81;1601690;89;21992;-87
2021/09/13 01:20:54;;;;;;;;;;;;;;;16.85;76.44;98196.00;1575625;90;26122;-87
2021/09/13 01:23:21;;;;;;;;;;;;;;;16.98;76.47;98197.25;1600253;88;24461;-87
2021/09/13 01:25:51;;;;;;;;;;;;;;;17.05;76.50;98194.34;1572507;89;20807;-87
2021/09/13 01:28:19;;;;;;;;;;;;;;;17.10;76.54;98192.56;1602903;88;25506;-87
2021/09/13 01:30:45;;;;;;;;;;;;;;;17.15;76.54;98200.38;1573624;90;22109;-87
2021/09/13 01:33:11;;;;;;;;;;;;;;;17.07;76.53;98191.03;1603452;88;21074;-87
2021/09/13 01:35:37;;;;;;;;;;;;;;;16.94;76.49;98193.27;1575623;89;24500;-87
2021/09/13 01:38:03;;;;;;;;;;;;;;;16.89;76.52;98188.09;1602166;89;20508;-87
2021/09/13 01:40:30;;;;;;;;;;;;;;;16.96;76.53;98196.59;1575410;90;24829;-87
2021/09/13 01:42:59;;;;;;;;;;;;;;;17.02;76.56;98187.22;1584642;89;20224;-87
2021/09/13 01:45:32;;;;;;;;;;;;;;;17.06;76.56;98186.76;1575522;90;26205;-86
2021/09/13 01:47:58;;;;;;;;;;;;;;;17.12;76.55;98189.28;1600282;88;24447;-86
2021/09/13 01:50:24;;;;;;;;;;;;;;;17.17;76.54;98187.48;1575612;90;20420;-87
2021/09/13 01:52:50;;;;;;;;;;;;;;;17.21;76.52;98198.09;1601820;89;20329;-87
2021/09/13 01:55:20;;;;;;;;;;;;;;;17.20;76.50;98201.22;1576942;89;20234;-87
2021/09/13 01:57:49;;;;;;;;;;;;;;;17.18;76.47;98193.95;1586912;88;26843;-87
2021/09/13 02:00:16;;;;;;;;;;;;;;;17.17;76.48;98199.39;1600580;88;24539;-87
2021/09/13 02:02:42;;;;;;;;;;;;;;;17.14;76.47;98202.67;1575564;89;20263;-87
2021/09/13 02:05:08;;;;;;;;;;;;;;;17.12;76.48;98203.83;1601824;88;20253;-87
2021/09/13 02:07:38;;;;;;;;;;;;;;;17.08;76.51;98199.80;1575765;90;21919;-86
2021/09/13 02:10:05;;;;;;;;;;;;;;;17.04;76.52;98192.68;1601838;88;25921;-86
2021/09/13 02:12:31;;;;;;;;;;;;;;;17.01;76.57;98199.61;1575668;90;24496;-86
2021/09/13 02:15:03;;;;;;;;;;;;;;;16.99;76.61;98197.60;1601796;89;20308;-87
2021/09/13 02:17:29;;;;;;;;;;;;;;;17.02;76.67;98193.31;1575503;91;24822;-86
2021/09/13 02:19:54;;;;;;;;;;;;;;;17.04;76.75;98193.17;1601993;88;20228;-86
2021/09/13 02:22:23;;;;;;;;;;;;;;;16.99;76.79;98196.28;1575437;89;21050;-86
2021/09/13 02:24:49;;;;;;;;;;;;;;;16.98;76.84;98197.75;1579274;89;24563;-86
2021/09/13 02:27:19;;;;;;;;;;;;;;;16.99;76.87;98200.73;1572084;89;20266;-86
2021/09/13 02:29:44;;;;;;;;;;;;;;;16.94;76.90;98199.88;1563408;89;24805;-87
2021/09/13 02:32:10;;;;;;;;;;;;;;;16.91;76.91;98198.84;1581099;89;20839;-86
2021/09/13 02:34:36;;;;;;;;;;;;;;;16.92;76.96;98201.83;1585464;90;26010;-87
2021/09/13 02:37:02;;;;;;;;;;;;;;;16.92;76.98;98202.31;1580223;90;20848;-87
2021/09/13 02:39:28;;;;;;;;;;;;;;;16.90;77.00;98202.48;1583773;89;20544;-86
2021/09/13 02:41:55;;;;;;;;;;;;;;;16.86;77.01;98206.88;1583893;90;25113;-86
2021/09/13 02:44:23;;;;;;;;;;;;;;;16.83;77.03;98205.39;1584347;90;22077;-86
2021/09/13 02:46:58;;;;;;;;;;;;;;;16.85;77.04;98202.61;1580496;90;25481;-86
2021/09/13 02:49:30;;;;;;;;;;;;;;;16.84;77.04;98203.58;1581277;89;24590;-86
2021/09/13 02:51:55;;;;;;;;;;;;;;;16.80;77.08;98208.84;1578939;90;20495;-87
2021/09/13 02:54:23;;;;;;;;;;;;;;;16.75;77.10;98209.27;1584642;89;20795;-86
2021/09/13 02:56:58;;;;;;;;;;;;;;;16.70;77.13;98213.69;1594832;88;22099;-86
2021/09/13 02:59:34;;;;;;;;;;;;;;;16.69;77.14;98209.37;1596296;89;26087;-86
2021/09/13 03:02:05;;;;;;;;;;;;;;;16.68;77.20;98210.87;1595355;89;24168;-86
2021/09/13 03:04:37;;;;;;;;;;;;;;;16.69;77.26;98209.90;1598430;89;20291;-86
2021/09/13 03:07:03;;;;;;;;;;;;;;;16.68;77.31;98212.20;1563670;89;24825;-87
2021/09/13 03:09:29;;;;;;;;;;;;;;;16.67;77.38;98212.69;1567166;90;20964;-86
2021/09/13 03:11:55;;;;;;;;;;;;;;;16.71;77.42;98213.20;1587451;89;21112;-87
2021/09/13 03:14:21;;;;;;;;;;;;;;;16.71;77.46;98214.52;1599864;89;20531;-87
2021/09/13 03:16:55;;;;;;;;;;;;;;;16.75;77.49;98215.08;1601803;89;20337;-87
2021/09/13 03:19:27;;;;;;;;;;;;;;;16.76;77.54;98214.90;1602977;89;24783;-87
2021/09/13 03:21:53;;;;;;;;;;;;;;;16.77;77.56;98221.86;1599398;88;22261;-86
2021/09/13 03:24:19;;;;;;;;;;;;;;;16.72;77.56;98219.67;1599030;89;26008;-86
2021/09/13 03:26:46;;;;;;;;;;;;;;;16.72;77.57;98225.44;1594411;89;38490;-86
2021/09/13 03:29:15;;;;;;;;;;;;;;;16.69;77.59;98227.88;1590842;89;20469;-86
2021/09/13 03:31:41;;;;;;;;;;;;;;;16.67;77.62;98227.70;1595195;89;24801;-86
2021/09/13 03:34:08;;;;;;;;;;;;;;;16.67;77.63;98227.70;1592606;89;20927;-86
2021/09/13 03:36:38;;;;;;;;;;;;;;;16.67;77.66;98227.70;1592301;89;26116;-86
2021/09/13 03:39:05;;;;;;;;;;;;;;;16.68;77.70;98226.73;1591666;89;24440;-86
2021/09/13 03:41:32;;;;;;;;;;;;;;;16.69;77.74;98232.36;1590153;89;20255;-86
2021/09/13 03:43:58;;;;;;;;;;;;;;;16.64;77.78;98228.83;1596115;89;20891;-86
2021/09/13 03:46:25;;;;;;;;;;;;;;;16.62;77.82;98231.30;1595902;89;20265;-86
2021/09/13 03:48:50;;;;;;;;;;;;;;;16.63;77.88;98229.00;1590108;89;25998;-86
2021/09/13 03:51:17;;;;;;;;;;;;;;;16.65;77.92;98229.66;1593211;89;24473;-86
2021/09/13 03:53:46;;;;;;;;;;;;;;;16.66;77.93;98228.68;1595981;89;20543;-87
2021/09/13 03:56:12;;;;;;;;;;;;;;;16.64;77.96;98230.14;1591894;89;24916;-86
2021/09/13 03:58:39;;;;;;;;;;;;;;;16.56;77.98;98224.77;1598839;89;20400;-86
2021/09/13 04:01:05;;;;;;;;;;;;;;;16.57;78.01;98226.92;1585245;89;26082;-86
2021/09/13 04:03:43;;;;;;;;;;;;;;;16.54;78.01;98232.48;1590599;89;24676;-86
2021/09/13 04:05:59;;;;;;;;;;;;;;;16.52;78.05;98231.82;1590574;89;20576;-86
2021/09/13 04:13:26;;;;;;;;;;;;;;;16.52;78.15;98230.02;1595687;88;26075;-87
2021/09/13 04:15:52;;;;;;;;;;;;;;;16.52;78.22;98230.02;1597618;88;24539;-87
2021/09/13 04:18:18;;;;;;;;;;;;;;;16.52;78.27;98230.50;1592779;89;20262;-87
2021/09/13 04:20:44;;;;;;;;;;;;;;;16.52;78.31;98229.18;1594361;89;20269;-87
2021/09/13 04:23:10;;;;;;;;;;;;;;;16.52;78.39;98226.53;1570088;88;20362;-87
2021/09/13 04:25:41;;;;;;;;;;;;;;;16.54;78.46;98228.52;1598691;88;26103;-86
2021/09/13 04:28:07;;;;;;;;;;;;;;;16.57;78.52;98230.39;1605336;88;24487;-86
2021/09/13 04:30:33;;;;;;;;;;;;;;;16.55;78.58;98234.16;1607241;87;20263;-86
2021/09/13 04:32:59;;;;;;;;;;;;;;;16.54;78.65;98233.80;1603672;88;24167;-86
2021/09/13 04:35:25;;;;;;;;;;;;;;;16.54;78.72;98236.45;1607918;88;20383;-87
2021/09/13 04:37:51;;;;;;;;;;;;;;;16.54;78.80;98237.77;1597728;88;21005;-87
2021/09/13 04:40:17;;;;;;;;;;;;;;;16.54;78.87;98236.45;1600535;88;24518;-87
2021/09/13 04:42:43;;;;;;;;;;;;;;;16.55;78.99;98244.23;1602822;88;20515;-87
2021/09/13 04:45:09;;;;;;;;;;;;;;;16.60;79.07;98241.17;1600176;88;20741;-87
2021/09/13 04:47:35;;;;;;;;;;;;;;;16.64;79.17;98240.72;1605823;88;22031;-87
2021/09/13 04:50:01;;;;;;;;;;;;;;;16.65;79.25;98234.45;1602889;88;21193;-86
2021/09/13 04:52:27;;;;;;;;;;;;;;;16.68;79.32;98235.49;1603725;88;24665;-86
2021/09/13 04:54:53;;;;;;;;;;;;;;;16.72;79.38;98234.69;1594544;88;20336;-86
2021/09/13 04:57:19;;;;;;;;;;;;;;;16.74;79.45;98235.38;1595775;88;20268;-86
2021/09/13 04:59:45;;;;;;;;;;;;;;;16.76;79.49;98237.36;1601124;88;22063;-86
2021/09/13 05:02:11;;;;;;;;;;;;;;;16.76;79.55;98237.36;1590610;88;26015;-86
2021/09/13 05:04:37;;;;;;;;;;;;;;;16.78;79.61;98227.48;1600582;87;20304;-86
2021/09/13 05:07:03;;;;;;;;;;;;;;;16.80;79.66;98241.36;1588783;88;20267;-86
2021/09/13 05:09:29;;;;;;;;;;;;;;;16.83;79.74;98241.56;1575619;88;20746;-85
2021/09/13 05:11:57;;;;;;;;;;;;;;;16.84;79.80;98248.03;1596212;88;22284;-86
2021/09/13 05:14:23;;;;;;;;;;;;;;;16.87;79.82;98252.17;1599958;88;26142;-86
2021/09/13 05:16:56;;;;;;;;;;;;;;;16.88;79.87;98254.67;1601433;88;20853;-86
2021/09/13 05:19:24;;;;;;;;;;;;;;;16.90;79.91;98250.56;1610818;88;20269;-87
2021/09/13 05:21:50;;;;;;;;;;;;;;;16.95;79.93;98253.58;1596325;88;24831;-87
2021/09/13 05:24:16;;;;;;;;;;;;;;;16.96;79.98;98254.76;1601999;87;21975;-86
2021/09/13 05:26:43;;;;;;;;;;;;;;;16.98;80.02;98252.77;1589572;89;26300;-87
2021/09/13 05:29:12;;;;;;;;;;;;;;;17.02;80.04;98254.64;1589297;89;25153;-86
2021/09/13 05:31:50;;;;;;;;;;;;;;;17.05;80.06;98256.48;1593946;89;20198;-86
2021/09/13 05:34:17;;;;;;;;;;;;;;;17.08;80.11;98265.42;1587491;89;25488;-86
2021/09/13 05:36:43;;;;;;;;;;;;;;;17.13;80.13;98261.83;1596998;89;22043;-86
2021/09/13 05:39:09;;;;;;;;;;;;;;;17.17;80.16;98265.50;1592003;89;21100;-86
2021/09/13 05:41:36;;;;;;;;;;;;;;;17.20;80.18;98263.37;1589320;89;24511;-86
2021/09/13 05:44:02;;;;;;;;;;;;;;;17.24;80.20;98263.92;1593900;89;20175;-86
2021/09/13 05:46:28;;;;;;;;;;;;;;;17.27;80.23;98260.95;1590819;89;24791;-86
2021/09/13 05:48:54;;;;;;;;;;;;;;;17.33;80.27;98264.31;1585618;89;20274;-86
2021/09/13 05:51:29;;;;;;;;;;;;;;;17.39;80.29;98261.05;1590841;89;21170;-87
2021/09/13 05:53:55;;;;;;;;;;;;;;;17.45;80.31;98264.41;1592375;89;24467;-87
2021/09/13 05:56:21;;;;;;;;;;;;;;;17.51;80.35;98265.92;1590528;89;20503;-87
2021/09/13 05:58:47;;;;;;;;;;;;;;;17.56;80.41;98265.48;1582555;89;20296;-86
2021/09/13 06:01:13;;;;;;;;;;;;;;;17.64;80.39;98262.08;1596078;89;21931;-86
2021/09/13 06:03:39;;;;;;;;;;;;;;;17.70;80.43;98264.94;1592476;89;20990;-86
2021/09/13 06:06:05;;;;;;;;;;;;;;;17.78;80.46;98264.16;1589455;89;24728;-86
2021/09/13 06:08:33;;;;;;;;;;;;;;;17.85;80.45;98266.02;1590259;89;20241;-86
2021/09/13 06:10:59;;;;;;;;;;;;;;;17.91;80.47;98268.53;1591146;89;24888;-87
2021/09/13 06:13:25;;;;;;;;;;;;;;;17.98;80.48;98273.05;1590320;89;20376;-87
2021/09/13 06:15:56;;;;;;;;;;;;;;;18.04;80.48;98270.27;1590832;89;21114;-87
2021/09/13 06:18:28;;;;;;;;;;;;;;;18.08;80.48;98274.25;1586989;89;25184;-86
2021/09/13 06:20:54;;;;;;;;;;;;;;;18.12;80.51;98270.78;1601192;89;20207;-86
2021/09/13 06:23:20;;;;;;;;;;;;;;;18.15;80.48;98274.45;1591119;89;20255;-86
2021/09/13 06:25:50;;;;;;;;;;;;;;;18.22;80.49;98278.14;1571732;89;22523;-86
2021/09/13 06:28:16;;;;;;;;;;;;;;;18.24;80.49;98274.32;1590667;89;26049;-86
2021/09/13 06:30:45;;;;;;;;;;;;;;;18.32;80.49;98277.02;1591456;89;20317;-87
2021/09/13 06:33:13;;;;;;;;;;;;;;;18.39;80.49;98279.34;1593007;89;20255;-86
2021/09/13 06:35:39;;;;;;;;;;;;;;;18.46;80.50;98284.01;1592753;89;24852;-86
2021/09/13 06:38:11;;;;;;;;;;;;;;;18.53;80.53;98285.87;1588878;89;22714;-86
2021/09/13 06:40:39;;;;;;;;;;;;;;;18.56;80.49;98286.06;1591324;89;26850;-87
2021/09/13 06:43:09;;;;;;;;;;;;;;;18.65;80.47;98290.41;1592031;89;24555;-86
2021/09/13 06:45:41;;;;;;;;;;;;;;;18.68;80.46;98280.80;1590061;89;20203;-86
2021/09/13 06:48:09;;;;;;;;;;;;;;;18.70;80.47;98285.45;1592653;89;24771;-85
2021/09/13 06:50:44;;;;;;;;;;;;;;;18.75;80.46;98286.63;1588832;89;21971;-85
2021/09/13 06:53:12;;;;;;;;;;;;;;;18.83;80.51;98288.45;1596923;89;26022;-86
2021/09/13 06:55:39;;;;;;;;;;;;;;;18.88;80.51;98286.63;1593771;89;24650;-85
2021/09/13 06:58:06;;;;;;;;;;;;;;;18.94;80.51;98289.97;1595530;89;20150;-85
2021/09/13 07:00:34;;;;;;;;;;;;;;;19.03;80.52;98291.66;1591535;89;24390;-86
2021/09/13 07:03:04;;;;;;;;;;;;;;;19.09;80.53;98287.02;1567590;89;21917;-85
2021/09/13 07:05:30;;;;;;;;;;;;;;;19.12;80.49;98288.84;1597003;89;26144;-85
2021/09/13 07:08:02;;;;;;;;;;;;;;;19.17;80.45;98291.00;1599862;89;20263;-87
2021/09/13 07:10:28;;;;;;;;;;;;;;;19.21;80.40;98296.30;1596754;89;20297;-86
2021/09/13 07:12:54;;;;;;;;;;;;;;;19.17;80.37;98297.62;1590353;89;24727;-86
2021/09/13 07:15:21;;;;;;;;;;;;;;;19.15;80.34;98300.93;1589205;89;20254;-86
2021/09/13 07:17:47;;;;;;;;;;;;;;;19.17;80.34;98302.44;1571810;89;26650;-86
2021/09/13 07:20:13;;;;;;;;;;;;;;;19.26;80.38;98305.09;1592837;89;20284;-86
2021/09/13 07:22:39;;;;;;;;;;;;;;;19.27;80.39;98302.28;1589389;89;20263;-86
2021/09/13 07:25:06;;;;;;;;;;;;;;;19.34;80.41;98301.95;1584470;89;24865;-86
2021/09/13 07:27:35;;;;;;;;;;;;;;;19.37;80.39;98305.59;1587144;89;21945;-86
2021/09/13 07:30:02;;;;;;;;;;;;;;;19.48;80.41;98305.30;1593793;89;26170;-86
2021/09/13 07:32:28;;;;;;;;;;;;;;;19.59;80.42;98302.80;1592265;89;24454;-86
2021/09/13 07:34:54;;;;;;;;;;;;;;;19.70;80.44;98314.91;1596658;89;20597;-86
2021/09/13 07:37:21;;;;;;;;;;;;;;;19.70;80.42;98313.58;1595548;89;24776;-85
2021/09/13 07:39:50;;;;;;;;;;;;;;;19.70;80.38;98316.23;1595562;89;22029;-86
2021/09/13 07:42:20;;;;;;;;;;;;;;;19.77;80.34;98311.92;1596627;89;26159;-85
2021/09/13 07:44:46;;;;;;;;;;;;;;;19.82;80.28;98310.42;1586762;89;24447;-86
2021/09/13 07:47:12;;;;;;;;;;;;;;;19.91;80.25;98314.70;1590723;89;20450;-86
2021/09/13 07:49:38;;;;;;;;;;;;;;;19.97;80.21;98319.84;1572968;89;20187;-85
2021/09/13 07:52:04;;;;;;;;;;;;;;;20.00;80.14;98324.84;1593615;89;20257;-86
2021/09/13 07:54:30;;;;;;;;;;;;;;;20.01;80.10;98327.33;1590935;89;26055;-86
2021/09/13 07:56:55;;;;;;;;;;;;;;;20.06;80.09;98329.48;1599332;89;20931;-86
2021/09/13 07:59:21;;;;;;;;;;;;;;;20.05;80.08;98332.63;1595053;89;20301;-86
2021/09/13 08:01:47;;;;;;;;;;;;;;;20.07;80.04;98331.14;1598520;89;20258;-86
2021/09/13 08:04:13;;;;;;;;;;;;;;;20.08;80.03;98336.76;1597503;89;20850;-86
2021/09/13 08:06:39;;;;;;;;;;;;;;;20.14;79.98;98332.10;1599215;89;21305;-86
2021/09/13 08:09:08;;;;;;;;;;;;;;;20.13;79.95;98329.11;1595388;89;24704;-86
2021/09/13 08:11:34;;;;;;;;;;;;;;;20.23;79.94;98337.75;1593689;89;20250;-86
2021/09/13 08:14:01;;;;;;;;;;;;;;;20.31;79.93;98336.88;1595437;89;24725;-86
2021/09/13 08:16:27;;;;;;;;;;;;;;;20.39;79.88;98337.73;1597356;88;21946;-85
2021/09/13 08:18:54;;;;;;;;;;;;;;;20.50;79.89;98339.69;1591439;89;26754;-86
2021/09/13 08:21:20;;;;;;;;;;;;;;;20.59;79.93;98336.81;1590600;89;24678;-85
2021/09/13 08:23:47;;;;;;;;;;;;;;;20.65;79.90;98341.44;1587941;89;20257;-86
2021/09/13 08:26:16;;;;;;;;;;;;;;;20.71;79.86;98337.27;1600254;89;24355;-86
2021/09/13 08:28:43;;;;;;;;;;;;;;;20.70;79.78;98336.93;1600781;88;22702;-86
2021/09/13 08:31:09;;;;;;;;;;;;;;;20.69;79.71;98340.09;1575090;89;26068;-86
2021/09/13 08:33:36;;;;;;;;;;;;;;;20.74;79.65;98339.06;1601100;88;24743;-86
2021/09/13 08:36:03;;;;;;;;;;;;;;;20.80;79.60;98338.38;1575556;90;20492;-86
2021/09/13 08:38:35;;;;;;;;;;;;;;;20.86;79.52;98339.51;1601576;88;24798;-86
2021/09/13 08:41:02;;;;;;;;;;;;;;;20.89;79.47;98337.84;1601841;88;22150;-86
2021/09/13 08:43:29;;;;;;;;;;;;;;;20.96;79.43;98341.45;1575555;90;26067;-86
2021/09/13 08:46:14;;;;;;;;;;;;;;;20.99;79.41;98341.11;1600908;89;24460;-86
2021/09/13 08:48:46;;;;;;;;;;;;;;;21.02;79.34;98337.25;1601613;89;20252;-86
2021/09/13 08:53:45;;;;;;;;;;;;;;;21.23;79.26;98342.30;1601672;89;22016;-86
2021/09/13 08:56:17;;;;;;;;;;;;;;;21.29;79.18;98340.77;1569951;90;26683;-86
2021/09/13 08:58:46;;;;;;;;;;;;;;;21.37;79.09;98343.89;1601361;88;24711;-86
2021/09/13 09:01:15;;;;;;;;;;;;;;;21.53;79.02;98345.10;1574212;91;20502;-86
2021/09/13 09:03:45;;;;;;;;;;;;;;;21.57;78.85;98343.23;1601740;88;24755;-86
2021/09/13 09:06:35;;;;;;;;;;;;;;;21.66;78.74;98340.81;1573011;90;21985;-86
2021/09/13 09:09:03;;;;;;;;;;;;;;;21.76;78.62;98335.26;1598363;89;26263;-86
2021/09/13 09:11:49;;;;;;;;;;;;;;;21.84;78.45;98338.34;1574225;90;24530;-86
2021/09/13 09:14:26;;;;;;;;;;;;;;;21.85;78.29;98337.33;1601377;89;20327;-86
2021/09/13 09:16:59;;;;;;;;;;;;;;;21.89;78.06;98338.62;1572983;89;24691;-86
2021/09/13 09:19:26;;;;;;;;;;;;;;;22.04;78.03;98336.33;1599099;88;24239;-86
2021/09/13 09:21:52;;;;;;;;;;;;;;;22.17;77.96;98338.87;1592340;88;26388;-86
2021/09/13 09:24:18;;;;;;;;;;;;;;;22.16;77.79;98340.71;1602497;88;24613;-86
2021/09/13 09:27:01;;;;;;;;;;;;;;;22.07;77.60;98341.31;1568380;89;20596;-86
2021/09/13 09:29:28;;;;;;;;;;;;;;;22.06;77.41;98343.65;1564964;90;25532;-86
2021/09/13 09:31:57;;;;;;;;;;;;;;;21.99;77.23;98346.70;1562647;89;22805;-85
2021/09/13 09:34:25;;;;;;;;;;;;;;;21.95;77.05;98352.59;1582679;89;26003;-86
2021/09/13 09:37:07;;;;;;;;;;;;;;;21.96;76.91;98355.58;1587003;89;25460;-86
2021/09/13 09:39:44;;;;;;;;;;;;;;;21.91;76.74;98353.44;1588164;89;20280;-85
2021/09/13 09:42:13;;;;;;;;;;;;;;;21.94;76.63;98355.75;1572391;90;25208;-86
2021/09/13 09:44:44;;;;;;;;;;;;;;;22.14;76.59;98349.92;1574962;90;21917;-85
2021/09/13 09:47:12;;;;;;;;;;;;;;;22.27;76.55;98348.77;1582098;89;26040;-85
2021/09/13 09:49:40;;;;;;;;;;;;;;;22.34;76.40;98344.36;1579650;89;24444;-86
2021/09/13 09:52:07;;;;;;;;;;;;;;;22.35;76.27;98342.02;1585510;89;20398;-86
2021/09/13 09:54:33;;;;;;;;;;;;;;;22.28;76.09;98349.92;1595982;88;24944;-86
2021/09/13 09:57:01;;;;;;;;;;;;;;;22.17;75.90;98345.54;1579493;89;20320;-86
2021/09/13 09:59:34;;;;;;;;;;;;;;;22.02;75.72;98348.20;1572804;89;25879;-86
2021/09/13 10:02:02;;;;;;;;;;;;;;;21.90;75.56;98345.61;1595415;88;25200;-86
2021/09/13 10:04:28;;;;;;;;;;;;;;;21.81;75.45;98338.21;1566176;89;20596;-86
2021/09/13 10:06:56;;;;;;;;;;;;;;;21.76;75.37;98337.09;1597292;88;25001;-86
2021/09/13 10:09:24;;;;;;;;;;;;;;;21.67;75.28;98340.31;1569550;89;22814;-87
2021/09/13 10:11:51;;;;;;;;;;;;;;;21.66;75.25;98337.32;1576998;88;26188;-87
2021/09/13 10:14:25;;;;;;;;;;;;;;;21.70;75.28;98334.64;1569178;89;24462;-87
2021/09/13 10:16:51;;;;;;;;;;;;;;;21.79;75.29;98336.72;1591684;88;20504;-86
2021/09/13 10:19:19;;;;;;;;;;;;;;;21.95;75.34;98332.60;1567462;90;24345;-86
2021/09/13 10:21:45;;;;;;;;;;;;;;;22.10;75.32;98322.78;1596656;88;22172;-87
2021/09/13 10:24:16;;;;;;;;;;;;;;;22.20;75.18;98325.20;1568412;91;26049;-86
2021/09/13 10:26:44;;;;;;;;;;;;;;;22.29;75.06;98328.09;1596536;88;24570;-86
2021/09/13 10:29:14;;;;;;;;;;;;;;;22.33;74.88;98322.70;1600952;88;20227;-86
2021/09/13 10:31:46;;;;;;;;;;;;;;;22.34;74.69;98316.36;1582033;90;24752;-86
2021/09/13 10:34:19;;;;;;;;;;;;;;;22.32;74.51;98325.88;1583586;89;22080;-86
2021/09/13 10:37:06;;;;;;;;;;;;;;;22.13;74.14;98317.60;1585740;89;26353;-86
2021/09/13 10:39:52;;;;;;;;;;;;;;;22.07;73.97;98321.32;1581765;89;24507;-87
2021/09/13 10:42:28;;;;;;;;;;;;;;;22.03;73.77;98318.71;1586501;89;20483;-87
2021/09/13 10:45:04;;;;;;;;;;;;;;;21.97;73.60;98319.94;1584124;90;24951;-86
2021/09/13 10:47:30;;;;;;;;;;;;;;;22.01;73.51;98319.89;1579857;90;22966;-86
2021/09/13 10:50:04;;;;;;;;;;;;;;;21.97;73.39;98315.44;1589915;90;25998;-86
2021/09/13 10:52:36;;;;;;;;;;;;;;;22.04;73.25;98318.17;1547969;90;24551;-86
2021/09/13 10:55:13;;;;;;;;;;;;;;;22.05;73.05;98315.84;1587247;89;20554;-87
2021/09/13 10:57:55;;;;;;;;;;;;;;;22.07;72.90;98313.83;1584932;89;24924;-86
2021/09/13 11:00:40;;;;;;;;;;;;;;;22.24;72.88;98314.48;1579567;89;21424;-86
2021/09/13 11:06:13;;;;;;;;;;;;;;;22.60;72.71;98306.54;1582756;89;24015;-86
2021/09/13 11:08:41;;;;;;;;;;;;;;;22.76;72.64;98312.52;1581818;89;20248;-86
2021/09/13 11:11:08;;;;;;;;;;;;;;;22.92;72.50;98311.47;1588188;90;24791;-87
2021/09/13 11:13:34;;;;;;;;;;;;;;;23.02;72.31;98310.66;1585483;89;22752;-86
2021/09/13 11:16:01;;;;;;;;;;;;;;;23.14;72.14;98306.98;1585518;90;26009;-86
2021/09/13 11:18:35;;;;;;;;;;;;;;;23.24;72.02;98299.48;1580672;90;24561;-86
2021/09/13 11:21:19;;;;;;;;;;;;;;;23.37;71.85;98303.63;1583931;89;20587;-86
2021/09/13 11:23:50;;;;;;;;;;;;;;;23.49;71.62;98308.81;1579406;90;24834;-86
2021/09/13 11:26:17;;;;;;;;;;;;;;;23.55;71.28;98310.72;1587036;90;21532;-86
2021/09/13 11:28:53;;;;;;;;;;;;;;;23.57;70.99;98306.50;1586869;89;26136;-86
2021/09/13 11:31:27;;;;;;;;;;;;;;;23.62;70.77;98302.77;1588074;90;24513;-86
2021/09/13 11:33:54;;;;;;;;;;;;;;;23.76;70.65;98306.68;1584325;89;20260;-86
2021/09/13 11:36:21;;;;;;;;;;;;;;;23.90;70.47;98304.92;1589537;90;24786;-86
2021/09/13 11:38:58;;;;;;;;;;;;;;;24.02;70.28;98302.53;1588345;89;22685;-86
2021/09/13 11:41:34;;;;;;;;;;;;;;;24.10;69.98;98294.37;1587192;90;26687;-86
2021/09/13 11:44:01;;;;;;;;;;;;;;;24.14;69.59;98295.13;1586100;89;24637;-86
2021/09/13 11:46:28;;;;;;;;;;;;;;;24.24;69.29;98293.96;1583121;90;20262;-86
2021/09/13 11:48:57;;;;;;;;;;;;;;;24.34;69.10;98293.91;1583471;90;24767;-86
2021/09/13 11:51:23;;;;;;;;;;;;;;;24.36;68.81;98296.41;1587728;90;22617;-86
2021/09/13 11:54:00;;;;;;;;;;;;;;;24.33;68.46;98292.80;1589819;90;26102;-87
2021/09/13 11:56:29;;;;;;;;;;;;;;;24.22;68.00;98287.46;1584749;89;24684;-87
2021/09/13 11:58:55;;;;;;;;;;;;;;;24.14;67.65;98289.77;1588144;90;20307;-88
2021/09/13 12:01:28;;;;;;;;;;;;;;;24.18;67.47;98294.23;1585643;90;24889;-87
2021/09/13 12:03:55;;;;;;;;;;;;;;;24.18;67.31;98284.37;1586098;90;22060;-87
2021/09/13 12:06:21;;;;;;;;;;;;;;;24.17;67.10;98288.06;1588752;90;26082;-87
2021/09/13 12:08:49;;;;;;;;;;;;;;;24.15;66.89;98282.58;1582754;90;24507;-87
2021/09/13 12:11:15;;;;;;;;;;;;;;;24.06;66.60;98279.22;1574896;89;20234;-87
2021/09/13 12:13:42;;;;;;;;;;;;;;;23.97;66.35;98283.08;1576950;89;24756;-86
2021/09/13 12:16:09;;;;;;;;;;;;;;;23.89;66.15;98279.73;1584782;89;22825;-86
2021/09/13 12:18:41;;;;;;;;;;;;;;;23.78;65.99;98275.77;1581402;89;25878;-87
2021/09/13 12:21:08;;;;;;;;;;;;;;;23.71;65.77;98282.38;1586037;89;24426;-86
2021/09/13 12:23:42;;;;;;;;;;;;;;;23.67;65.50;98278.97;1587828;88;20241;-86
2021/09/13 12:26:04;;;;;;;;;;;;;;;23.69;65.23;98276.91;1588208;89;24805;-86
2021/09/13 12:28:34;;;;;;;;;;;;;;;23.67;64.93;98278.45;1583683;89;22039;-88
2021/09/13 12:31:01;;;;;;;;;;;;;;;23.68;64.69;98271.23;1576616;89;26059;-87
2021/09/13 12:33:38;;;;;;;;;;;;;;;23.67;64.45;98273.11;1574657;89;24548;-86
2021/09/13 12:36:15;;;;;;;;;;;;;;;23.75;64.33;98274.29;1575950;89;20252;-87
2021/09/13 12:38:42;;;;;;;;;;;;;;;23.82;64.17;98274.84;1580030;89;24885;-87
2021/09/13 12:41:08;;;;;;;;;;;;;;;23.95;64.13;98274.92;1587856;89;22138;-87
2021/09/13 12:43:38;;;;;;;;;;;;;;;24.09;64.03;98271.33;1576812;89;26063;-87
2021/09/13 12:46:11;;;;;;;;;;;;;;;24.21;63.86;98275.14;1585807;89;24517;-87
2021/09/13 12:48:39;;;;;;;;;;;;;;;24.32;63.69;98279.10;1594369;89;20187;-86
2021/09/13 12:51:08;;;;;;;;;;;;;;;24.31;63.43;98264.08;1575446;89;24912;-86
2021/09/13 12:53:34;;;;;;;;;;;;;;;24.33;63.19;98265.51;1584140;89;22108;-86
2021/09/13 12:56:01;;;;;;;;;;;;;;;24.41;63.10;98255.16;1585715;89;26071;-87
2021/09/13 12:58:34;;;;;;;;;;;;;;;24.49;62.87;98262.49;1586464;89;25248;-87
2021/09/13 13:01:08;;;;;;;;;;;;;;;24.50;62.58;98264.15;1580634;89;20242;-87
2021/09/13 13:03:34;;;;;;;;;;;;;;;24.51;62.32;98265.80;1586436;89;24751;-87